sensor_id;sensor_type;location;lat;lon;timestamp;temperature;humidity
10437;DHT22;5265;50.006;9.202;2023-05-01T07:23:53;13.90;99.90
10437;DHT22;5265;50.006;9.202;2023-05-01T07:26:20;14.00;99.90
10437;DHT22;5265;50.006;9.202;2023-05-01T07:28:47;14.00;99.90
10437;DHT22;5265;50.006;9.202;2023-05-01T07:33:43;14.10;99.90
10437;DHT22;5265;50.006;9.202;2023-05-01T07:36:10;14.40;99.90
10437;DHT22;5265;50.006;9.202;2023-05-01T07:41:06;14.50;99.90
10437;DHT22;5265;50.006;9.202;2023-05-01T07:43:33;14.60;99.90
10437;DHT22;5265;50.006;9.202;2023-05-01T07:46:01;14.60;99.90
10437;DHT22;5265;50.006;9.202;2023-05-01T07:48:28;14.80;99.90
10437;DHT22;5265;50.006;9.202;2023-05-01T07:50:59;14.90;99.90
10437;DHT22;5265;50.006;9.202;2023-05-01T07:53:27;14.90;99.90
10437;DHT22;5265;50.006;9.202;2023-05-01T07:56:03;15.00;99.90
10437;DHT22;5265;50.006;9.202;2023-05-01T07:58:31;15.10;99.90
10437;DHT22;5265;50.006;9.202;2023-05-01T08:00:59;15.30;99.90
10437;DHT22;5265;50.006;9.202;2023-05-01T08:03:26;15.30;99.90
10437;DHT22;5265;50.006;9.202;2023-05-01T08:05:53;15.40;99.90
10437;DHT22;5265;50.006;9.202;2023-05-01T08:08:20;15.50;99.90
10437;DHT22;5265;50.006;9.202;2023-05-01T08:10:47;15.50;99.90
10437;DHT22;5265;50.006;9.202;2023-05-01T08:13:14;15.60;99.90
10437;DHT22;5265;50.006;9.202;2023-05-01T08:15:44;15.70;99.90
10437;DHT22;5265;50.006;9.202;2023-05-01T08:18:11;15.70;99.90
10437;DHT22;5265;50.006;9.202;2023-05-01T08:20:44;15.80;99.90
10437;DHT22;5265;50.006;9.202;2023-05-01T08:23:12;15.90;99.90
10437;DHT22;5265;50.006;9.202;2023-05-01T08:25:40;16.00;99.90
10437;DHT22;5265;50.006;9.202;2023-05-01T08:28:07;16.00;99.90
10437;DHT22;5265;50.006;9.202;2023-05-01T08:30:34;16.10;99.90
10437;DHT22;5265;50.006;9.202;2023-05-01T08:33:03;16.10;99.90
10437;DHT22;5265;50.006;9.202;2023-05-01T08:35:30;16.20;99.90
10437;DHT22;5265;50.006;9.202;2023-05-01T08:37:57;16.30;99.90
10437;DHT22;5265;50.006;9.202;2023-05-01T08:40:26;16.30;99.90
10437;DHT22;5265;50.006;9.202;2023-05-01T08:42:57;16.30;99.90
10437;DHT22;5265;50.006;9.202;2023-05-01T08:45:26;16.40;99.90
10437;DHT22;5265;50.006;9.202;2023-05-01T08:47:53;16.50;99.90
10437;DHT22;5265;50.006;9.202;2023-05-01T08:50:22;16.50;99.90
10437;DHT22;5265;50.006;9.202;2023-05-01T08:52:50;16.60;99.90
10437;DHT22;5265;50.006;9.202;2023-05-01T08:55:19;16.70;99.90
10437;DHT22;5265;50.006;9.202;2023-05-01T08:57:47;16.70;99.90
10437;DHT22;5265;50.006;9.202;2023-05-01T09:00:16;16.80;99.90
10437;DHT22;5265;50.006;9.202;2023-05-01T09:02:44;17.00;99.90
10437;DHT22;5265;50.006;9.202;2023-05-01T09:05:12;17.10;99.90
10437;DHT22;5265;50.006;9.202;2023-05-01T09:07:41;17.20;99.90
10437;DHT22;5265;50.006;9.202;2023-05-01T09:10:08;17.30;99.90
10437;DHT22;5265;50.006;9.202;2023-05-01T09:12:35;17.30;99.90
10437;DHT22;5265;50.006;9.202;2023-05-01T09:15:03;17.40;99.90
10437;DHT22;5265;50.006;9.202;2023-05-01T09:17:32;17.60;99.90
10437;DHT22;5265;50.006;9.202;2023-05-01T09:20:00;17.40;99.90
10437;DHT22;5265;50.006;9.202;2023-05-01T09:22:29;17.50;99.90
10437;DHT22;5265;50.006;9.202;2023-05-01T09:24:58;17.60;99.90
10437;DHT22;5265;50.006;9.202;2023-05-01T09:27:28;17.70;99.90
10437;DHT22;5265;50.006;9.202;2023-05-01T09:29:55;17.60;99.90
10437;DHT22;5265;50.006;9.202;2023-05-01T09:32:23;17.70;99.90
10437;DHT22;5265;50.006;9.202;2023-05-01T09:34:53;17.80;99.90
10437;DHT22;5265;50.006;9.202;2023-05-01T09:37:24;17.80;99.90
10437;DHT22;5265;50.006;9.202;2023-05-01T09:40:01;17.80;99.90
10437;DHT22;5265;50.006;9.202;2023-05-01T09:42:28;17.80;99.90
10437;DHT22;5265;50.006;9.202;2023-05-01T09:44:56;17.70;99.90
10437;DHT22;5265;50.006;9.202;2023-05-01T09:47:23;17.60;99.90
10437;DHT22;5265;50.006;9.202;2023-05-01T09:49:52;17.10;99.90
10437;DHT22;5265;50.006;9.202;2023-05-01T09:52:19;17.20;99.90
10437;DHT22;5265;50.006;9.202;2023-05-01T09:54:46;16.90;99.90
10437;DHT22;5265;50.006;9.202;2023-05-01T09:57:15;16.80;99.90
10437;DHT22;5265;50.006;9.202;2023-05-01T18:27:51;17.10;99.90
10437;DHT22;5265;50.006;9.202;2023-05-01T18:30:19;16.90;99.90
10437;DHT22;5265;50.006;9.202;2023-05-01T18:32:47;16.60;99.90
10437;DHT22;5265;50.006;9.202;2023-05-01T18:35:14;16.50;99.90
10437;DHT22;5265;50.006;9.202;2023-05-01T18:37:41;16.40;99.90
10437;DHT22;5265;50.006;9.202;2023-05-01T18:40:08;16.30;99.90
10437;DHT22;5265;50.006;9.202;2023-05-01T18:42:35;15.90;99.90
10437;DHT22;5265;50.006;9.202;2023-05-01T18:45:04;15.60;99.90
10437;DHT22;5265;50.006;9.202;2023-05-01T18:47:31;15.40;99.90
10437;DHT22;5265;50.006;9.202;2023-05-01T18:49:59;15.30;99.90
10437;DHT22;5265;50.006;9.202;2023-05-01T18:52:26;15.30;99.90
10437;DHT22;5265;50.006;9.202;2023-05-01T18:54:53;15.30;99.90
10437;DHT22;5265;50.006;9.202;2023-05-01T18:57:20;15.20;99.90
10437;DHT22;5265;50.006;9.202;2023-05-01T18:59:48;15.10;99.90
10437;DHT22;5265;50.006;9.202;2023-05-01T19:02:16;14.90;99.90
10437;DHT22;5265;50.006;9.202;2023-05-01T19:04:43;14.90;99.90
10437;DHT22;5265;50.006;9.202;2023-05-01T19:07:10;14.70;99.90
10437;DHT22;5265;50.006;9.202;2023-05-01T19:09:37;14.50;99.90
10437;DHT22;5265;50.006;9.202;2023-05-01T19:12:04;14.50;99.90
10437;DHT22;5265;50.006;9.202;2023-05-01T19:14:31;14.40;99.90
10437;DHT22;5265;50.006;9.202;2023-05-01T19:16:59;14.20;99.90
10437;DHT22;5265;50.006;9.202;2023-05-01T19:19:27;14.20;99.90
10437;DHT22;5265;50.006;9.202;2023-05-01T19:21:54;14.20;99.90
10437;DHT22;5265;50.006;9.202;2023-05-01T19:24:21;14.20;99.90
10437;DHT22;5265;50.006;9.202;2023-05-01T19:26:48;14.20;99.90
10437;DHT22;5265;50.006;9.202;2023-05-01T19:29:15;14.20;99.90
10437;DHT22;5265;50.006;9.202;2023-05-01T19:31:42;14.10;99.90
10437;DHT22;5265;50.006;9.202;2023-05-01T19:34:09;14.10;99.90
10437;DHT22;5265;50.006;9.202;2023-05-01T19:36:37;13.80;99.90
10437;DHT22;5265;50.006;9.202;2023-05-01T19:39:04;13.70;99.90
10437;DHT22;5265;50.006;9.202;2023-05-01T19:41:31;13.50;99.90
10437;DHT22;5265;50.006;9.202;2023-05-01T19:43:59;13.60;99.90
10437;DHT22;5265;50.006;9.202;2023-05-01T19:46:26;13.40;99.90
10437;DHT22;5265;50.006;9.202;2023-05-01T19:48:52;13.50;99.90
10437;DHT22;5265;50.006;9.202;2023-05-01T19:51:20;13.30;99.90
10437;DHT22;5265;50.006;9.202;2023-05-01T19:53:48;13.30;99.90
10437;DHT22;5265;50.006;9.202;2023-05-01T19:56:15;13.10;99.90
10437;DHT22;5265;50.006;9.202;2023-05-01T19:58:42;13.00;99.90
10437;DHT22;5265;50.006;9.202;2023-05-01T20:01:09;12.70;99.90
10437;DHT22;5265;50.006;9.202;2023-05-01T20:03:37;12.50;99.90
10437;DHT22;5265;50.006;9.202;2023-05-01T20:06:04;12.50;99.90
10437;DHT22;5265;50.006;9.202;2023-05-01T20:08:32;12.60;99.90
10437;DHT22;5265;50.006;9.202;2023-05-01T20:11:00;12.70;99.90
10437;DHT22;5265;50.006;9.202;2023-05-01T20:13:27;12.60;99.90
10437;DHT22;5265;50.006;9.202;2023-05-01T20:15:54;12.80;99.90
10437;DHT22;5265;50.006;9.202;2023-05-01T20:18:21;12.70;99.90
10437;DHT22;5265;50.006;9.202;2023-05-01T20:20:48;12.60;99.90
10437;DHT22;5265;50.006;9.202;2023-05-01T20:23:16;12.60;99.90
10437;DHT22;5265;50.006;9.202;2023-05-01T20:25:43;12.30;99.90
10437;DHT22;5265;50.006;9.202;2023-05-01T20:28:13;12.40;99.90
10437;DHT22;5265;50.006;9.202;2023-05-01T20:30:41;12.30;99.90
10437;DHT22;5265;50.006;9.202;2023-05-01T20:33:09;12.40;99.90
10437;DHT22;5265;50.006;9.202;2023-05-01T20:35:36;12.30;99.90
10437;DHT22;5265;50.006;9.202;2023-05-01T20:38:04;12.20;99.90
10437;DHT22;5265;50.006;9.202;2023-05-01T20:40:31;12.20;99.90
10437;DHT22;5265;50.006;9.202;2023-05-01T20:42:59;12.00;99.90
10437;DHT22;5265;50.006;9.202;2023-05-01T20:45:27;11.80;99.90
10437;DHT22;5265;50.006;9.202;2023-05-01T20:47:55;12.00;99.90
10437;DHT22;5265;50.006;9.202;2023-05-01T20:50:23;11.80;99.90
10437;DHT22;5265;50.006;9.202;2023-05-01T20:52:50;12.20;99.90
10437;DHT22;5265;50.006;9.202;2023-05-01T20:55:18;12.40;99.90
10437;DHT22;5265;50.006;9.202;2023-05-01T20:57:45;12.50;99.90
10437;DHT22;5265;50.006;9.202;2023-05-01T21:00:12;12.50;99.90
10437;DHT22;5265;50.006;9.202;2023-05-01T21:02:40;12.60;99.90
10437;DHT22;5265;50.006;9.202;2023-05-01T21:05:08;12.60;99.90
10437;DHT22;5265;50.006;9.202;2023-05-01T21:07:36;12.60;99.90
10437;DHT22;5265;50.006;9.202;2023-05-01T21:10:04;12.60;99.90
10437;DHT22;5265;50.006;9.202;2023-05-01T21:12:31;12.60;99.90
10437;DHT22;5265;50.006;9.202;2023-05-01T21:14:58;12.70;99.90
10437;DHT22;5265;50.006;9.202;2023-05-01T21:17:25;12.70;99.90
10437;DHT22;5265;50.006;9.202;2023-05-01T21:19:54;12.70;99.90
10437;DHT22;5265;50.006;9.202;2023-05-01T21:22:21;12.80;99.90
10437;DHT22;5265;50.006;9.202;2023-05-01T21:24:50;12.90;99.90
10437;DHT22;5265;50.006;9.202;2023-05-01T21:27:20;12.80;99.90
10437;DHT22;5265;50.006;9.202;2023-05-01T21:29:48;12.70;99.90
10437;DHT22;5265;50.006;9.202;2023-05-01T21:32:16;12.60;99.90
10437;DHT22;5265;50.006;9.202;2023-05-01T21:34:44;12.70;99.90
10437;DHT22;5265;50.006;9.202;2023-05-01T21:37:12;12.70;99.90
10437;DHT22;5265;50.006;9.202;2023-05-01T21:39:43;12.50;99.90
10437;DHT22;5265;50.006;9.202;2023-05-01T21:42:11;12.40;99.90
10437;DHT22;5265;50.006;9.202;2023-05-01T21:44:38;12.40;99.90
10437;DHT22;5265;50.006;9.202;2023-05-01T21:47:05;12.20;99.90
10437;DHT22;5265;50.006;9.202;2023-05-01T21:49:32;12.10;99.90
10437;DHT22;5265;50.006;9.202;2023-05-01T21:51:59;12.10;99.90
10437;DHT22;5265;50.006;9.202;2023-05-01T21:54:28;12.10;99.90
10437;DHT22;5265;50.006;9.202;2023-05-01T21:56:56;12.00;99.90
10437;DHT22;5265;50.006;9.202;2023-05-01T21:59:25;12.00;99.90
10437;DHT22;5265;50.006;9.202;2023-05-01T22:01:53;11.90;99.90
10437;DHT22;5265;50.006;9.202;2023-05-01T22:04:20;11.80;99.90
10437;DHT22;5265;50.006;9.202;2023-05-01T22:06:47;11.80;99.90
10437;DHT22;5265;50.006;9.202;2023-05-01T22:09:15;11.60;99.90
10437;DHT22;5265;50.006;9.202;2023-05-01T22:11:44;11.60;99.90
10437;DHT22;5265;50.006;9.202;2023-05-01T22:14:10;11.50;99.90
10437;DHT22;5265;50.006;9.202;2023-05-01T22:16:37;11.50;99.90
10437;DHT22;5265;50.006;9.202;2023-05-01T22:19:06;11.30;99.90
10437;DHT22;5265;50.006;9.202;2023-05-01T22:21:32;11.30;99.90
10437;DHT22;5265;50.006;9.202;2023-05-01T22:24:00;11.30;99.90
10437;DHT22;5265;50.006;9.202;2023-05-01T22:26:27;11.30;99.90
10437;DHT22;5265;50.006;9.202;2023-05-01T22:28:56;11.30;99.90
10437;DHT22;5265;50.006;9.202;2023-05-01T22:31:23;11.20;99.90
10437;DHT22;5265;50.006;9.202;2023-05-01T22:33:50;11.10;99.90
10437;DHT22;5265;50.006;9.202;2023-05-01T22:36:18;11.00;99.90
10437;DHT22;5265;50.006;9.202;2023-05-01T22:38:45;10.90;99.90
10437;DHT22;5265;50.006;9.202;2023-05-01T22:41:12;11.00;99.90
10437;DHT22;5265;50.006;9.202;2023-05-01T22:43:39;10.90;99.90
10437;DHT22;5265;50.006;9.202;2023-05-01T22:46:08;11.00;99.90
10437;DHT22;5265;50.006;9.202;2023-05-01T22:48:35;10.90;99.90
10437;DHT22;5265;50.006;9.202;2023-05-01T22:51:02;10.80;99.90
10437;DHT22;5265;50.006;9.202;2023-05-01T22:53:29;10.70;99.90
10437;DHT22;5265;50.006;9.202;2023-05-01T22:55:56;10.60;99.90
10437;DHT22;5265;50.006;9.202;2023-05-01T22:58:23;10.50;99.90
10437;DHT22;5265;50.006;9.202;2023-05-01T23:00:51;10.40;99.90
10437;DHT22;5265;50.006;9.202;2023-05-01T23:03:19;10.40;99.90
10437;DHT22;5265;50.006;9.202;2023-05-01T23:05:46;10.40;99.90
10437;DHT22;5265;50.006;9.202;2023-05-01T23:08:13;10.30;99.90
10437;DHT22;5265;50.006;9.202;2023-05-01T23:10:40;10.20;99.90
10437;DHT22;5265;50.006;9.202;2023-05-01T23:13:09;10.20;99.90
10437;DHT22;5265;50.006;9.202;2023-05-01T23:15:42;10.20;99.90
10437;DHT22;5265;50.006;9.202;2023-05-01T23:18:11;10.30;99.90
10437;DHT22;5265;50.006;9.202;2023-05-01T23:20:41;10.30;99.90
10437;DHT22;5265;50.006;9.202;2023-05-01T23:23:09;10.40;99.90
10437;DHT22;5265;50.006;9.202;2023-05-01T23:25:43;10.30;99.90
10437;DHT22;5265;50.006;9.202;2023-05-01T23:28:10;10.40;99.90
10437;DHT22;5265;50.006;9.202;2023-05-01T23:30:38;10.40;99.90
10437;DHT22;5265;50.006;9.202;2023-05-01T23:33:06;10.50;99.90
10437;DHT22;5265;50.006;9.202;2023-05-01T23:35:36;10.40;99.90
10437;DHT22;5265;50.006;9.202;2023-05-01T23:38:05;10.40;99.90
10437;DHT22;5265;50.006;9.202;2023-05-01T23:40:32;10.30;99.90
10437;DHT22;5265;50.006;9.202;2023-05-01T23:50:27;10.10;99.90
